sensor_id;sensor_type;location;lat;lon;timestamp;P1;durP1;ratioP1;P2;durP2;ratioP2
6985;SDS011;3533;51.246;6.850;2023-04-01T00:00:51;0.90;;;0.70;;
6985;SDS011;3533;51.246;6.850;2023-04-01T00:03:18;0.80;;;0.80;;
6985;SDS011;3533;51.246;6.850;2023-04-01T00:05:45;0.80;;;0.70;;
6985;SDS011;3533;51.246;6.850;2023-04-01T00:08:11;1.67;;;0.83;;
6985;SDS011;3533;51.246;6.850;2023-04-01T00:10:37;1.07;;;0.70;;
6985;SDS011;3533;51.246;6.850;2023-04-01T00:13:02;0.70;;;0.67;;
6985;SDS011;3533;51.246;6.850;2023-04-01T00:15:28;0.80;;;0.70;;
6985;SDS011;3533;51.246;6.850;2023-04-01T00:17:54;1.00;;;0.80;;
6985;SDS011;3533;51.246;6.850;2023-04-01T00:20:20;1.10;;;0.80;;
6985;SDS011;3533;51.246;6.850;2023-04-01T00:22:46;1.00;;;0.70;;
6985;SDS011;3533;51.246;6.850;2023-04-01T00:25:11;0.80;;;0.70;;
6985;SDS011;3533;51.246;6.850;2023-04-01T00:27:37;0.97;;;0.80;;
6985;SDS011;3533;51.246;6.850;2023-04-01T00:30:03;0.80;;;0.60;;
6985;SDS011;3533;51.246;6.850;2023-04-01T00:32:29;1.00;;;0.73;;
6985;SDS011;3533;51.246;6.850;2023-04-01T00:34:55;1.00;;;0.70;;
6985;SDS011;3533;51.246;6.850;2023-04-01T00:37:21;0.83;;;0.70;;
6985;SDS011;3533;51.246;6.850;2023-04-01T00:39:47;0.90;;;0.70;;
6985;SDS011;3533;51.246;6.850;2023-04-01T00:42:13;1.20;;;0.80;;
6985;SDS011;3533;51.246;6.850;2023-04-01T00:44:39;0.90;;;0.70;;
6985;SDS011;3533;51.246;6.850;2023-04-01T00:47:05;0.93;;;0.70;;
6985;SDS011;3533;51.246;6.850;2023-04-01T00:49:33;1.93;;;0.70;;
6985;SDS011;3533;51.246;6.850;2023-04-01T00:52:05;0.70;;;0.70;;
6985;SDS011;3533;51.246;6.850;2023-04-01T00:54:33;0.80;;;0.70;;
6985;SDS011;3533;51.246;6.850;2023-04-01T00:59:35;0.80;;;0.60;;
6985;SDS011;3533;51.246;6.850;2023-04-01T01:02:07;0.73;;;0.63;;
6985;SDS011;3533;51.246;6.850;2023-04-01T01:04:34;1.10;;;1.00;;
6985;SDS011;3533;51.246;6.850;2023-04-01T01:10:10;0.93;;;0.50;;
6985;SDS011;3533;51.246;6.850;2023-04-01T01:13:09;1.00;;;0.70;;
6985;SDS011;3533;51.246;6.850;2023-04-01T01:21:06;0.83;;;0.70;;
6985;SDS011;3533;51.246;6.850;2023-04-01T01:26:46;1.10;;;0.70;;
6985;SDS011;3533;51.246;6.850;2023-04-01T01:35:37;0.67;;;0.60;;
6985;SDS011;3533;51.246;6.850;2023-04-01T01:38:12;0.70;;;0.60;;
6985;SDS011;3533;51.246;6.850;2023-04-01T01:40:41;0.70;;;0.60;;
6985;SDS011;3533;51.246;6.850;2023-04-01T01:43:11;0.90;;;0.70;;
6985;SDS011;3533;51.246;6.850;2023-04-01T01:45:43;1.10;;;0.70;;
6985;SDS011;3533;51.246;6.850;2023-04-01T01:48:12;0.70;;;0.60;;
6985;SDS011;3533;51.246;6.850;2023-04-01T01:50:38;0.80;;;0.63;;
6985;SDS011;3533;51.246;6.850;2023-04-01T01:53:06;0.70;;;0.60;;
6985;SDS011;3533;51.246;6.850;2023-04-01T01:55:37;1.10;;;0.80;;
6985;SDS011;3533;51.246;6.850;2023-04-01T01:58:08;0.60;;;0.60;;
6985;SDS011;3533;51.246;6.850;2023-04-01T02:00:45;1.17;;;0.60;;
6985;SDS011;3533;51.246;6.850;2023-04-01T02:03:14;0.87;;;0.70;;
6985;SDS011;3533;51.246;6.850;2023-04-01T02:05:42;0.70;;;0.60;;
6985;SDS011;3533;51.246;6.850;2023-04-01T02:08:16;1.33;;;0.80;;
6985;SDS011;3533;51.246;6.850;2023-04-01T02:10:49;0.73;;;0.60;;
6985;SDS011;3533;51.246;6.850;2023-04-01T02:13:37;0.70;;;0.60;;
6985;SDS011;3533;51.246;6.850;2023-04-01T02:16:08;1.03;;;0.90;;
6985;SDS011;3533;51.246;6.850;2023-04-01T02:18:39;0.77;;;0.60;;
6985;SDS011;3533;51.246;6.850;2023-04-01T02:21:06;0.70;;;0.50;;
6985;SDS011;3533;51.246;6.850;2023-04-01T02:23:33;1.00;;;0.70;;
6985;SDS011;3533;51.246;6.850;2023-04-01T02:26:01;0.80;;;0.63;;
6985;SDS011;3533;51.246;6.850;2023-04-01T02:28:29;1.43;;;0.60;;
6985;SDS011;3533;51.246;6.850;2023-04-01T02:30:56;0.90;;;0.80;;
6985;SDS011;3533;51.246;6.850;2023-04-01T02:33:25;0.70;;;0.60;;
6985;SDS011;3533;51.246;6.850;2023-04-01T02:35:52;0.80;;;0.60;;
6985;SDS011;3533;51.246;6.850;2023-04-01T02:38:17;0.63;;;0.60;;
6985;SDS011;3533;51.246;6.850;2023-04-01T02:40:44;1.20;;;0.70;;
6985;SDS011;3533;51.246;6.850;2023-04-01T02:43:15;0.70;;;0.60;;
6985;SDS011;3533;51.246;6.850;2023-04-01T02:45:41;0.77;;;0.70;;
6985;SDS011;3533;51.246;6.850;2023-04-01T02:48:07;0.60;;;0.60;;
6985;SDS011;3533;51.246;6.850;2023-04-01T02:50:33;0.73;;;0.60;;
6985;SDS011;3533;51.246;6.850;2023-04-01T02:52:58;0.73;;;0.60;;
6985;SDS011;3533;51.246;6.850;2023-04-01T02:55:24;0.70;;;0.60;;
6985;SDS011;3533;51.246;6.850;2023-04-01T02:57:50;0.80;;;0.70;;
6985;SDS011;3533;51.246;6.850;2023-04-01T03:00:15;0.63;;;0.50;;
6985;SDS011;3533;51.246;6.850;2023-04-01T03:02:41;1.37;;;0.50;;
6985;SDS011;3533;51.246;6.850;2023-04-01T03:05:09;0.80;;;0.60;;
6985;SDS011;3533;51.246;6.850;2023-04-01T03:07:35;0.60;;;0.57;;
6985;SDS011;3533;51.246;6.850;2023-04-01T03:10:00;1.73;;;0.70;;
6985;SDS011;3533;51.246;6.850;2023-04-01T03:12:26;0.80;;;0.60;;
6985;SDS011;3533;51.246;6.850;2023-04-01T03:14:51;0.70;;;0.50;;
6985;SDS011;3533;51.246;6.850;2023-04-01T03:17:17;0.63;;;0.50;;
6985;SDS011;3533;51.246;6.850;2023-04-01T03:19:42;1.47;;;0.60;;
6985;SDS011;3533;51.246;6.850;2023-04-01T03:22:09;0.70;;;0.50;;
6985;SDS011;3533;51.246;6.850;2023-04-01T03:24:36;0.57;;;0.50;;
6985;SDS011;3533;51.246;6.850;2023-04-01T03:27:01;0.80;;;0.70;;
6985;SDS011;3533;51.246;6.850;2023-04-01T03:29:27;0.83;;;0.70;;
6985;SDS011;3533;51.246;6.850;2023-04-01T03:31:52;0.60;;;0.50;;
6985;SDS011;3533;51.246;6.850;2023-04-01T03:34:18;0.60;;;0.57;;
6985;SDS011;3533;51.246;6.850;2023-04-01T03:36:43;0.60;;;0.50;;
6985;SDS011;3533;51.246;6.850;2023-04-01T03:39:09;0.60;;;0.50;;
6985;SDS011;3533;51.246;6.850;2023-04-01T03:41:35;0.70;;;0.57;;
6985;SDS011;3533;51.246;6.850;2023-04-01T03:44:02;0.90;;;0.60;;
6985;SDS011;3533;51.246;6.850;2023-04-01T03:46:27;0.67;;;0.50;;
6985;SDS011;3533;51.246;6.850;2023-04-01T03:48:53;0.73;;;0.60;;
6985;SDS011;3533;51.246;6.850;2023-04-01T03:51:18;0.70;;;0.70;;
6985;SDS011;3533;51.246;6.850;2023-04-01T03:53:44;0.60;;;0.50;;
6985;SDS011;3533;51.246;6.850;2023-04-01T03:56:10;0.80;;;0.80;;
6985;SDS011;3533;51.246;6.850;2023-04-01T03:58:35;0.70;;;0.47;;
6985;SDS011;3533;51.246;6.850;2023-04-01T04:01:01;1.87;;;0.80;;
6985;SDS011;3533;51.246;6.850;2023-04-01T04:03:27;0.90;;;0.60;;
6985;SDS011;3533;51.246;6.850;2023-04-01T04:05:53;0.80;;;0.60;;
6985;SDS011;3533;51.246;6.850;2023-04-01T04:08:18;1.43;;;0.50;;
6985;SDS011;3533;51.246;6.850;2023-04-01T04:10:46;0.70;;;0.60;;
6985;SDS011;3533;51.246;6.850;2023-04-01T04:13:11;0.90;;;0.70;;
6985;SDS011;3533;51.246;6.850;2023-04-01T04:15:38;0.80;;;0.80;;
6985;SDS011;3533;51.246;6.850;2023-04-01T04:18:03;0.60;;;0.50;;
6985;SDS011;3533;51.246;6.850;2023-04-01T04:20:29;1.40;;;0.60;;
6985;SDS011;3533;51.246;6.850;2023-04-01T04:22:54;0.60;;;0.50;;
6985;SDS011;3533;51.246;6.850;2023-04-01T04:25:20;0.60;;;0.50;;
6985;SDS011;3533;51.246;6.850;2023-04-01T04:27:45;0.60;;;0.50;;
6985;SDS011;3533;51.246;6.850;2023-04-01T04:30:11;0.60;;;0.50;;
6985;SDS011;3533;51.246;6.850;2023-04-01T04:32:37;0.60;;;0.50;;
6985;SDS011;3533;51.246;6.850;2023-04-01T04:35:02;0.60;;;0.50;;
6985;SDS011;3533;51.246;6.850;2023-04-01T04:37:28;0.70;;;0.60;;
6985;SDS011;3533;51.246;6.850;2023-04-01T04:39:54;0.60;;;0.40;;
6985;SDS011;3533;51.246;6.850;2023-04-01T04:42:19;1.00;;;0.50;;
6985;SDS011;3533;51.246;6.850;2023-04-01T04:44:45;0.60;;;0.40;;
6985;SDS011;3533;51.246;6.850;2023-04-01T04:47:10;0.60;;;0.50;;
6985;SDS011;3533;51.246;6.850;2023-04-01T04:49:36;0.70;;;0.60;;
6985;SDS011;3533;51.246;6.850;2023-04-01T04:52:01;0.70;;;0.50;;
6985;SDS011;3533;51.246;6.850;2023-04-01T04:54:27;0.70;;;0.50;;
6985;SDS011;3533;51.246;6.850;2023-04-01T04:56:53;0.60;;;0.50;;
6985;SDS011;3533;51.246;6.850;2023-04-01T04:59:19;0.80;;;0.60;;
6985;SDS011;3533;51.246;6.850;2023-04-01T05:01:44;0.70;;;0.60;;
6985;SDS011;3533;51.246;6.850;2023-04-01T05:04:10;0.60;;;0.50;;
6985;SDS011;3533;51.246;6.850;2023-04-01T05:06:36;0.60;;;0.50;;
6985;SDS011;3533;51.246;6.850;2023-04-01T05:09:01;1.00;;;0.90;;
6985;SDS011;3533;51.246;6.850;2023-04-01T05:11:27;0.70;;;0.60;;
6985;SDS011;3533;51.246;6.850;2023-04-01T05:13:52;0.70;;;0.50;;
6985;SDS011;3533;51.246;6.850;2023-04-01T05:16:18;0.60;;;0.50;;
6985;SDS011;3533;51.246;6.850;2023-04-01T05:18:45;0.60;;;0.40;;
6985;SDS011;3533;51.246;6.850;2023-04-01T05:21:12;0.77;;;0.50;;
6985;SDS011;3533;51.246;6.850;2023-04-01T05:23:39;0.97;;;0.50;;
6985;SDS011;3533;51.246;6.850;2023-04-01T05:26:05;1.17;;;0.60;;
6985;SDS011;3533;51.246;6.850;2023-04-01T05:28:32;0.60;;;0.50;;
6985;SDS011;3533;51.246;6.850;2023-04-01T05:30:58;1.53;;;0.60;;
6985;SDS011;3533;51.246;6.850;2023-04-01T05:33:25;0.77;;;0.77;;
6985;SDS011;3533;51.246;6.850;2023-04-01T05:35:52;3.40;;;0.60;;
6985;SDS011;3533;51.246;6.850;2023-04-01T05:38:18;0.60;;;0.47;;
6985;SDS011;3533;51.246;6.850;2023-04-01T05:40:43;2.20;;;0.50;;
6985;SDS011;3533;51.246;6.850;2023-04-01T05:43:09;0.80;;;0.50;;
6985;SDS011;3533;51.246;6.850;2023-04-01T05:45:35;0.70;;;0.57;;
6985;SDS011;3533;51.246;6.850;2023-04-01T05:48:02;0.87;;;0.40;;
6985;SDS011;3533;51.246;6.850;2023-04-01T05:50:28;0.60;;;0.50;;
6985;SDS011;3533;51.246;6.850;2023-04-01T05:52:54;0.60;;;0.50;;
6985;SDS011;3533;51.246;6.850;2023-04-01T05:55:20;0.60;;;0.50;;
6985;SDS011;3533;51.246;6.850;2023-04-01T05:57:45;0.73;;;0.50;;
6985;SDS011;3533;51.246;6.850;2023-04-01T06:00:13;0.67;;;0.43;;
6985;SDS011;3533;51.246;6.850;2023-04-01T06:02:39;1.43;;;0.50;;
6985;SDS011;3533;51.246;6.850;2023-04-01T06:05:19;0.60;;;0.50;;
6985;SDS011;3533;51.246;6.850;2023-04-01T06:07:50;0.60;;;0.43;;
6985;SDS011;3533;51.246;6.850;2023-04-01T06:11:19;1.23;;;0.87;;
6985;SDS011;3533;51.246;6.850;2023-04-01T06:14:10;0.60;;;0.50;;
6985;SDS011;3533;51.246;6.850;2023-04-01T06:30:58;0.70;;;0.50;;
6985;SDS011;3533;51.246;6.850;2023-04-01T06:36:47;0.80;;;0.60;;
6985;SDS011;3533;51.246;6.850;2023-04-01T06:45:06;0.73;;;0.50;;
6985;SDS011;3533;51.246;6.850;2023-04-01T06:54:04;0.60;;;0.50;;
6985;SDS011;3533;51.246;6.850;2023-04-01T06:56:36;0.60;;;0.50;;
6985;SDS011;3533;51.246;6.850;2023-04-01T06:59:12;0.60;;;0.50;;
6985;SDS011;3533;51.246;6.850;2023-04-01T07:01:45;0.70;;;0.63;;
6985;SDS011;3533;51.246;6.850;2023-04-01T07:04:20;0.60;;;0.50;;
6985;SDS011;3533;51.246;6.850;2023-04-01T07:07:10;0.70;;;0.70;;
6985;SDS011;3533;51.246;6.850;2023-04-01T07:09:50;0.70;;;0.50;;
6985;SDS011;3533;51.246;6.850;2023-04-01T07:14:57;0.97;;;0.60;;
6985;SDS011;3533;51.246;6.850;2023-04-01T07:17:27;1.20;;;0.50;;
6985;SDS011;3533;51.246;6.850;2023-04-01T07:19:58;1.37;;;0.50;;
6985;SDS011;3533;51.246;6.850;2023-04-01T07:22:31;0.60;;;0.50;;
6985;SDS011;3533;51.246;6.850;2023-04-01T07:25:05;0.60;;;0.60;;
6985;SDS011;3533;51.246;6.850;2023-04-01T07:27:37;0.70;;;0.50;;
6985;SDS011;3533;51.246;6.850;2023-04-01T07:30:14;0.80;;;0.60;;
6985;SDS011;3533;51.246;6.850;2023-04-01T07:32:47;0.70;;;0.50;;
6985;SDS011;3533;51.246;6.850;2023-04-01T07:38:03;0.80;;;0.60;;
6985;SDS011;3533;51.246;6.850;2023-04-01T07:40:37;0.87;;;0.50;;
6985;SDS011;3533;51.246;6.850;2023-04-01T07:48:58;0.80;;;0.50;;
6985;SDS011;3533;51.246;6.850;2023-04-01T07:51:31;0.60;;;0.60;;
6985;SDS011;3533;51.246;6.850;2023-04-01T07:56:43;1.00;;;0.60;;
6985;SDS011;3533;51.246;6.850;2023-04-01T07:59:35;1.10;;;0.80;;
6985;SDS011;3533;51.246;6.850;2023-04-01T08:02:14;0.70;;;0.60;;
6985;SDS011;3533;51.246;6.850;2023-04-01T08:05:18;1.13;;;0.67;;
6985;SDS011;3533;51.246;6.850;2023-04-01T08:16:02;0.70;;;0.60;;
6985;SDS011;3533;51.246;6.850;2023-04-01T08:21:02;0.60;;;0.50;;
6985;SDS011;3533;51.246;6.850;2023-04-01T08:23:33;1.00;;;0.60;;
6985;SDS011;3533;51.246;6.850;2023-04-01T08:28:41;2.57;;;0.50;;
6985;SDS011;3533;51.246;6.850;2023-04-01T08:31:21;0.87;;;0.60;;
6985;SDS011;3533;51.246;6.850;2023-04-01T08:33:57;1.30;;;0.70;;
6985;SDS011;3533;51.246;6.850;2023-04-01T08:36:31;0.80;;;0.60;;
6985;SDS011;3533;51.246;6.850;2023-04-01T08:39:18;0.80;;;0.60;;
6985;SDS011;3533;51.246;6.850;2023-04-01T08:42:18;0.70;;;0.50;;
6985;SDS011;3533;51.246;6.850;2023-04-01T08:47:40;0.73;;;0.67;;
6985;SDS011;3533;51.246;6.850;2023-04-01T08:53:31;0.70;;;0.70;;
6985;SDS011;3533;51.246;6.850;2023-04-01T09:12:49;2.87;;;0.90;;
6985;SDS011;3533;51.246;6.850;2023-04-01T09:18:08;113.07;;;13.80;;
6985;SDS011;3533;51.246;6.850;2023-04-01T09:26:36;13.77;;;2.77;;
6985;SDS011;3533;51.246;6.850;2023-04-01T09:34:30;22.10;;;3.50;;
6985;SDS011;3533;51.246;6.850;2023-04-01T09:37:19;12.40;;;2.83;;
6985;SDS011;3533;51.246;6.850;2023-04-01T09:39:56;4.03;;;1.90;;
6985;SDS011;3533;51.246;6.850;2023-04-01T09:45:17;8.80;;;1.90;;
6985;SDS011;3533;51.246;6.850;2023-04-01T09:48:02;7.07;;;1.70;;
6985;SDS011;3533;51.246;6.850;2023-04-01T09:59:27;2.70;;;1.30;;
6985;SDS011;3533;51.246;6.850;2023-04-01T10:08:36;5.00;;;1.20;;
6985;SDS011;3533;51.246;6.850;2023-04-01T10:17:00;4.10;;;1.40;;
6985;SDS011;3533;51.246;6.850;2023-04-01T10:25:18;1.30;;;1.20;;
6985;SDS011;3533;51.246;6.850;2023-04-01T10:28:14;2.03;;;1.60;;
6985;SDS011;3533;51.246;6.850;2023-04-01T10:33:49;1.63;;;1.53;;
6985;SDS011;3533;51.246;6.850;2023-04-01T10:42:02;1.40;;;1.30;;
6985;SDS011;3533;51.246;6.850;2023-04-01T10:44:59;5.17;;;1.20;;
6985;SDS011;3533;51.246;6.850;2023-04-01T11:30:14;47.07;;;11.23;;
6985;SDS011;3533;51.246;6.850;2023-04-01T11:38:25;80.30;;;16.50;;
6985;SDS011;3533;51.246;6.850;2023-04-01T11:41:17;41.37;;;12.10;;
6985;SDS011;3533;51.246;6.850;2023-04-01T11:47:13;75.87;;;17.57;;
6985;SDS011;3533;51.246;6.850;2023-04-01T11:49:49;45.70;;;13.27;;
6985;SDS011;3533;51.246;6.850;2023-04-01T11:57:51;81.63;;;21.03;;
6985;SDS011;3533;51.246;6.850;2023-04-01T12:11:50;26.63;;;8.23;;
6985;SDS011;3533;51.246;6.850;2023-04-01T12:14:29;16.73;;;7.30;;
6985;SDS011;3533;51.246;6.850;2023-04-01T12:17:10;17.23;;;6.00;;
6985;SDS011;3533;51.246;6.850;2023-04-01T12:20:10;13.63;;;5.50;;
6985;SDS011;3533;51.246;6.850;2023-04-01T12:26:29;6.60;;;3.60;;
6985;SDS011;3533;51.246;6.850;2023-04-01T12:31:51;6.27;;;3.40;;
6985;SDS011;3533;51.246;6.850;2023-04-01T12:34:38;4.17;;;2.90;;
6985;SDS011;3533;51.246;6.850;2023-04-01T12:45:49;3.73;;;2.70;;
6985;SDS011;3533;51.246;6.850;2023-04-01T12:48:30;3.10;;;2.80;;
6985;SDS011;3533;51.246;6.850;2023-04-01T13:04:47;2.37;;;2.17;;
6985;SDS011;3533;51.246;6.850;2023-04-01T13:07:36;3.27;;;2.37;;
6985;SDS011;3533;51.246;6.850;2023-04-01T13:13:13;2.53;;;2.13;;
6985;SDS011;3533;51.246;6.850;2023-04-01T13:15:54;3.83;;;2.30;;
6985;SDS011;3533;51.246;6.850;2023-04-01T13:18:29;3.90;;;2.20;;
6985;SDS011;3533;51.246;6.850;2023-04-01T13:24:02;3.03;;;1.87;;
6985;SDS011;3533;51.246;6.850;2023-04-01T13:26:47;3.43;;;2.07;;
6985;SDS011;3533;51.246;6.850;2023-04-01T13:29:39;3.80;;;2.30;;
6985;SDS011;3533;51.246;6.850;2023-04-01T13:34:47;2.70;;;1.97;;
6985;SDS011;3533;51.246;6.850;2023-04-01T13:40:43;6.23;;;2.00;;
6985;SDS011;3533;51.246;6.850;2023-04-01T13:51:21;3.53;;;1.60;;
6985;SDS011;3533;51.246;6.850;2023-04-01T14:10:36;3.43;;;2.10;;
6985;SDS011;3533;51.246;6.850;2023-04-01T14:13:18;2.10;;;1.40;;
6985;SDS011;3533;51.246;6.850;2023-04-01T14:19:24;2.13;;;2.03;;
6985;SDS011;3533;51.246;6.850;2023-04-01T14:21:37;2.40;;;1.83;;
6985;SDS011;3533;51.246;6.850;2023-04-01T14:24:18;1.80;;;1.70;;
6985;SDS011;3533;51.246;6.850;2023-04-01T14:32:02;1.80;;;1.70;;
6985;SDS011;3533;51.246;6.850;2023-04-01T14:40:13;1.50;;;1.40;;
6985;SDS011;3533;51.246;6.850;2023-04-01T14:47:59;1.80;;;1.53;;
6985;SDS011;3533;51.246;6.850;2023-04-01T14:50:31;2.50;;;1.50;;
6985;SDS011;3533;51.246;6.850;2023-04-01T14:53:25;2.13;;;2.03;;
6985;SDS011;3533;51.246;6.850;2023-04-01T14:55:57;4.30;;;1.60;;
6985;SDS011;3533;51.246;6.850;2023-04-01T14:58:27;45.57;;;8.50;;
6985;SDS011;3533;51.246;6.850;2023-04-01T15:06:45;29.53;;;8.37;;
6985;SDS011;3533;51.246;6.850;2023-04-01T15:12:19;23.13;;;8.17;;
6985;SDS011;3533;51.246;6.850;2023-04-01T15:17:58;23.73;;;9.20;;
6985;SDS011;3533;51.246;6.850;2023-04-01T15:23:10;16.27;;;7.60;;
6985;SDS011;3533;51.246;6.850;2023-04-01T15:37:13;14.57;;;6.53;;
6985;SDS011;3533;51.246;6.850;2023-04-01T15:40:14;14.47;;;5.90;;
6985;SDS011;3533;51.246;6.850;2023-04-01T15:57:03;8.63;;;3.83;;
6985;SDS011;3533;51.246;6.850;2023-04-01T16:02:36;9.80;;;4.57;;
6985;SDS011;3533;51.246;6.850;2023-04-01T16:16:25;5.00;;;3.13;;
6985;SDS011;3533;51.246;6.850;2023-04-01T16:27:32;6.17;;;3.00;;
6985;SDS011;3533;51.246;6.850;2023-04-01T16:30:22;5.73;;;2.50;;
6985;SDS011;3533;51.246;6.850;2023-04-01T16:32:51;4.20;;;2.50;;
6985;SDS011;3533;51.246;6.850;2023-04-01T16:38:13;7.43;;;3.27;;
6985;SDS011;3533;51.246;6.850;2023-04-01T16:43:48;7.90;;;2.60;;
6985;SDS011;3533;51.246;6.850;2023-04-01T16:46:41;3.23;;;2.10;;
6985;SDS011;3533;51.246;6.850;2023-04-01T16:51:37;3.23;;;2.37;;
6985;SDS011;3533;51.246;6.850;2023-04-01T16:54:10;3.67;;;2.10;;
6985;SDS011;3533;51.246;6.850;2023-04-01T16:57:35;2.80;;;2.20;;
6985;SDS011;3533;51.246;6.850;2023-04-01T17:00:02;2.80;;;2.37;;
6985;SDS011;3533;51.246;6.850;2023-04-01T17:02:49;3.07;;;2.33;;
6985;SDS011;3533;51.246;6.850;2023-04-01T17:05:42;3.43;;;2.47;;
6985;SDS011;3533;51.246;6.850;2023-04-01T17:11:32;5.00;;;2.23;;
6985;SDS011;3533;51.246;6.850;2023-04-01T17:14:22;3.90;;;2.30;;
6985;SDS011;3533;51.246;6.850;2023-04-01T17:16:57;10.97;;;4.83;;
6985;SDS011;3533;51.246;6.850;2023-04-01T17:25:25;3.17;;;2.33;;
6985;SDS011;3533;51.246;6.850;2023-04-01T17:39:19;6.13;;;2.93;;
6985;SDS011;3533;51.246;6.850;2023-04-01T17:41:52;6.10;;;3.00;;
6985;SDS011;3533;51.246;6.850;2023-04-01T17:44:50;3.83;;;3.20;;
6985;SDS011;3533;51.246;6.850;2023-04-01T18:01:23;8.17;;;4.83;;
6985;SDS011;3533;51.246;6.850;2023-04-01T18:06:41;13.07;;;6.07;;
6985;SDS011;3533;51.246;6.850;2023-04-01T18:09:46;9.00;;;5.53;;
6985;SDS011;3533;51.246;6.850;2023-04-01T18:12:29;10.23;;;6.10;;
6985;SDS011;3533;51.246;6.850;2023-04-01T18:15:28;9.33;;;5.83;;
6985;SDS011;3533;51.246;6.850;2023-04-01T18:18:32;14.40;;;5.40;;
6985;SDS011;3533;51.246;6.850;2023-04-01T18:26:50;11.03;;;5.83;;
6985;SDS011;3533;51.246;6.850;2023-04-01T18:32:47;8.93;;;5.23;;
6985;SDS011;3533;51.246;6.850;2023-04-01T18:40:45;14.40;;;6.37;;
6985;SDS011;3533;51.246;6.850;2023-04-01T18:43:36;10.43;;;5.30;;
6985;SDS011;3533;51.246;6.850;2023-04-01T18:46:12;11.20;;;5.47;;
6985;SDS011;3533;51.246;6.850;2023-04-01T18:48:57;10.77;;;5.30;;
6985;SDS011;3533;51.246;6.850;2023-04-01T18:52:08;13.20;;;5.03;;
6985;SDS011;3533;51.246;6.850;2023-04-01T18:57:39;10.43;;;6.00;;
6985;SDS011;3533;51.246;6.850;2023-04-01T19:00:37;12.43;;;6.03;;
6985;SDS011;3533;51.246;6.850;2023-04-01T19:03:25;9.57;;;5.13;;
6985;SDS011;3533;51.246;6.850;2023-04-01T19:06:08;12.37;;;6.17;;
6985;SDS011;3533;51.246;6.850;2023-04-01T19:08:47;13.83;;;5.90;;
6985;SDS011;3533;51.246;6.850;2023-04-01T19:11:16;12.10;;;5.37;;
6985;SDS011;3533;51.246;6.850;2023-04-01T19:17:07;9.53;;;5.33;;
6985;SDS011;3533;51.246;6.850;2023-04-01T19:25:55;12.80;;;6.30;;
6985;SDS011;3533;51.246;6.850;2023-04-01T19:28:41;10.23;;;5.80;;
6985;SDS011;3533;51.246;6.850;2023-04-01T19:40:03;8.03;;;5.03;;
6985;SDS011;3533;51.246;6.850;2023-04-01T19:45:43;9.63;;;5.60;;
6985;SDS011;3533;51.246;6.850;2023-04-01T19:50:55;10.90;;;5.33;;
6985;SDS011;3533;51.246;6.850;2023-04-01T19:56:17;10.47;;;5.63;;
6985;SDS011;3533;51.246;6.850;2023-04-01T19:58:53;15.30;;;5.87;;
6985;SDS011;3533;51.246;6.850;2023-04-01T20:01:22;8.20;;;6.00;;
6985;SDS011;3533;51.246;6.850;2023-04-01T20:03:58;8.33;;;6.33;;
6985;SDS011;3533;51.246;6.850;2023-04-01T20:06:37;8.80;;;6.07;;
6985;SDS011;3533;51.246;6.850;2023-04-01T20:14:51;9.17;;;5.07;;
6985;SDS011;3533;51.246;6.850;2023-04-01T20:17:24;7.10;;;5.00;;
6985;SDS011;3533;51.246;6.850;2023-04-01T20:19:59;10.60;;;5.10;;
6985;SDS011;3533;51.246;6.850;2023-04-01T20:25:11;8.47;;;5.37;;
6985;SDS011;3533;51.246;6.850;2023-04-01T20:27:39;8.57;;;5.50;;
6985;SDS011;3533;51.246;6.850;2023-04-01T20:38:56;7.97;;;5.10;;
6985;SDS011;3533;51.246;6.850;2023-04-01T20:41:27;6.57;;;4.90;;
6985;SDS011;3533;51.246;6.850;2023-04-01T20:44:12;6.37;;;4.70;;
6985;SDS011;3533;51.246;6.850;2023-04-01T20:46:52;5.50;;;4.70;;
6985;SDS011;3533;51.246;6.850;2023-04-01T20:52:25;9.80;;;5.23;;
6985;SDS011;3533;51.246;6.850;2023-04-01T21:08:51;5.67;;;5.07;;
6985;SDS011;3533;51.246;6.850;2023-04-01T21:17:27;5.50;;;4.20;;
6985;SDS011;3533;51.246;6.850;2023-04-01T21:23:05;4.37;;;4.00;;
6985;SDS011;3533;51.246;6.850;2023-04-01T21:25:41;5.20;;;4.67;;
6985;SDS011;3533;51.246;6.850;2023-04-01T21:31:02;4.50;;;3.90;;
6985;SDS011;3533;51.246;6.850;2023-04-01T21:33:39;6.00;;;4.80;;
6985;SDS011;3533;51.246;6.850;2023-04-01T21:39:16;6.20;;;4.10;;
6985;SDS011;3533;51.246;6.850;2023-04-01T21:44:43;7.63;;;4.37;;
6985;SDS011;3533;51.246;6.850;2023-04-01T22:07:21;5.70;;;3.87;;
6985;SDS011;3533;51.246;6.850;2023-04-01T22:09:52;4.47;;;3.73;;
6985;SDS011;3533;51.246;6.850;2023-04-01T22:12:52;4.43;;;3.80;;
6985;SDS011;3533;51.246;6.850;2023-04-01T22:24:07;3.60;;;3.30;;
6985;SDS011;3533;51.246;6.850;2023-04-01T22:29:27;3.50;;;3.20;;
6985;SDS011;3533;51.246;6.850;2023-04-01T22:32:18;3.63;;;3.17;;
6985;SDS011;3533;51.246;6.850;2023-04-01T22:35:23;3.77;;;3.40;;
6985;SDS011;3533;51.246;6.850;2023-04-01T22:37:58;5.70;;;3.43;;
6985;SDS011;3533;51.246;6.850;2023-04-01T22:40:32;3.33;;;3.00;;
6985;SDS011;3533;51.246;6.850;2023-04-01T22:43:12;4.43;;;3.27;;
6985;SDS011;3533;51.246;6.850;2023-04-01T22:46:02;4.10;;;3.80;;
6985;SDS011;3533;51.246;6.850;2023-04-01T22:54:32;5.03;;;3.40;;
6985;SDS011;3533;51.246;6.850;2023-04-01T23:00:03;6.27;;;3.10;;
6985;SDS011;3533;51.246;6.850;2023-04-01T23:05:29;2.93;;;2.60;;
6985;SDS011;3533;51.246;6.850;2023-04-01T23:11:04;3.73;;;2.80;;
6985;SDS011;3533;51.246;6.850;2023-04-01T23:13:34;3.33;;;3.03;;
6985;SDS011;3533;51.246;6.850;2023-04-01T23:16:04;3.10;;;2.80;;
6985;SDS011;3533;51.246;6.850;2023-04-01T23:18:36;5.27;;;3.20;;
6985;SDS011;3533;51.246;6.850;2023-04-01T23:23:52;3.47;;;3.17;;
6985;SDS011;3533;51.246;6.850;2023-04-01T23:27:11;4.30;;;3.33;;
6985;SDS011;3533;51.246;6.850;2023-04-01T23:29:35;3.67;;;3.17;;
6985;SDS011;3533;51.246;6.850;2023-04-01T23:32:04;3.23;;;2.87;;
6985;SDS011;3533;51.246;6.850;2023-04-01T23:34:38;6.50;;;3.00;;
6985;SDS011;3533;51.246;6.850;2023-04-01T23:37:12;2.90;;;2.70;;
6985;SDS011;3533;51.246;6.850;2023-04-01T23:39:42;3.13;;;2.93;;
6985;SDS011;3533;51.246;6.850;2023-04-01T23:44:46;2.83;;;2.53;;
6985;SDS011;3533;51.246;6.850;2023-04-01T23:47:22;2.60;;;2.40;;
6985;SDS011;3533;51.246;6.850;2023-04-01T23:49:53;2.70;;;2.50;;
6985;SDS011;3533;51.246;6.850;2023-04-01T23:52:30;2.70;;;2.50;;
6985;SDS011;3533;51.246;6.850;2023-04-01T23:55:18;3.00;;;2.70;;
